Moelfre, United Kingdom
Current Conditions -  °F | °C
As of 12:50 AM on Sunday 26 Oct 2014 (Local Time) from EGOV Reporting Station
Broken Clouds Broken Clouds  
Wind Chill: 57°   Ceiling: 4200
Heat Index: 57°   Visibility: 6mi
Dew Point: 50°   Wind: 28mph
Humidity: 77%   Direction: 220°SW
Pressure: 29.97"   Gusts: NA
Location:  53.34°N, 4.25°W
Report Text: EGOV 252350Z AUTO 22024KT 9999 BKN042/// 14/10 Q1015
Loading
Personal Weather Stations






























Interactive Weather Map
Tropical Storm Tracking
New forecast layout! Learn more

10-Day Weather Forecast

Advertisements
Track Severe Weather on mobile